Time;durP1;ratioP1;P1;durP2;ratioP2;P2;SDS_P1;SDS_P2;PMS_P1;PMS_P2;Temp;Humidity;BMP_temperature;BMP_pressure;BME280_temperature;BME280_humidity;BME280_pressure;Samples;Min_cycle;Max_cycle;Signal;HPM_P1;HPM_P2
2021/04/26 00:00:28;;;;;;;18.10;8.55;;;;;;;11.08;59.06;99808.78;5033029;28;20036;-38
2021/04/26 00:02:59;;;;;;;19.83;8.90;;;;;;;11.02;59.12;99811.41;5033174;28;20473;-38
2021/04/26 00:05:25;;;;;;;17.13;8.57;;;;;;;11.16;58.58;99815.72;5032787;28;20496;-38
2021/04/26 00:07:50;;;;;;;17.27;8.05;;;;;;;11.24;58.81;99820.03;5032489;28;20017;-38
2021/04/26 00:10:16;;;;;;;16.30;8.23;;;;;;;11.38;58.17;99829.63;5032731;28;20367;-37
2021/04/26 00:12:41;;;;;;;19.92;8.88;;;;;;;11.53;58.04;99824.91;5032637;28;20052;-38
2021/04/26 00:15:13;;;;;;;20.15;9.25;;;;;;;11.50;57.97;99827.19;5031941;28;20021;-38
2021/04/26 00:17:38;;;;;;;20.40;8.40;;;;;;;11.30;58.62;99832.53;5013580;28;20034;-38
2021/04/26 00:20:06;;;;;;;18.52;8.88;;;;;;;11.38;58.27;99840.28;5044543;28;20033;-38
2021/04/26 00:22:32;;;;;;;19.73;9.57;;;;;;;11.52;58.18;99836.59;5011250;28;20022;-37
2021/04/26 00:24:57;;;;;;;18.98;8.85;;;;;;;11.28;58.01;99830.06;5026524;28;20480;-38
2021/04/26 00:27:23;;;;;;;16.60;8.68;;;;;;;11.25;58.90;99829.66;5032535;28;20025;-38
2021/04/26 00:29:48;;;;;;;16.00;8.68;;;;;;;11.10;58.38;99835.16;5032601;28;20029;-37
2021/04/26 00:32:14;;;;;;;18.95;9.15;;;;;;;11.13;58.75;99840.09;5032725;28;20036;-37
2021/04/26 00:34:39;;;;;;;15.63;9.25;;;;;;;11.05;59.13;99846.44;5032494;28;20045;-38
2021/04/26 00:37:04;;;;;;;17.40;9.25;;;;;;;10.82;60.11;99838.84;5032395;28;20033;-38
2021/04/26 00:39:30;;;;;;;15.65;9.23;;;;;;;10.58;60.98;99837.56;5032096;28;20447;-38
2021/04/26 00:41:55;;;;;;;18.50;8.95;;;;;;;10.41;61.12;99847.75;5032127;28;20036;-38
2021/04/26 00:44:21;;;;;;;15.85;9.23;;;;;;;10.35;61.67;99849.38;5032297;28;20040;-37
2021/04/26 00:46:46;;;;;;;18.70;9.13;;;;;;;10.57;60.65;99846.59;5032001;28;20511;-37
2021/04/26 00:49:12;;;;;;;18.05;9.48;;;;;;;10.65;59.77;99837.59;5032080;28;20025;-37
2021/04/26 00:51:37;;;;;;;15.07;9.30;;;;;;;10.67;60.36;99839.03;5032097;28;20033;-38
2021/04/26 00:54:03;;;;;;;18.48;8.98;;;;;;;10.74;60.09;99833.72;5014154;28;20091;-38
2021/04/26 00:56:28;;;;;;;16.15;9.63;;;;;;;10.86;58.85;99834.75;5029891;28;20079;-38
2021/04/26 00:58:54;;;;;;;18.77;8.93;;;;;;;10.62;59.72;99819.38;5031325;28;20401;-38
2021/04/26 01:01:20;;;;;;;16.50;9.50;;;;;;;10.65;60.02;99833.09;5030275;28;20025;-39
2021/04/26 01:03:46;;;;;;;17.58;8.68;;;;;;;10.52;60.37;99830.41;5031758;28;20025;-38
2021/04/26 01:06:11;;;;;;;18.75;10.30;;;;;;;10.56;60.28;99831.63;5031698;28;20044;-38
2021/04/26 01:08:37;;;;;;;18.70;9.27;;;;;;;10.40;61.22;99827.50;5031541;28;20032;-38
2021/04/26 01:11:02;;;;;;;17.98;8.85;;;;;;;10.46;60.79;99829.34;5031511;28;20559;-38
2021/04/26 01:13:40;;;;;;;18.27;9.40;;;;;;;10.67;60.32;99832.88;5030120;28;20029;-38
2021/04/26 01:16:12;;;;;;;13.93;9.10;;;;;;;10.73;60.07;99829.41;5031704;28;20030;-38
2021/04/26 01:18:56;;;;;;;16.63;9.30;;;;;;;10.95;59.44;99838.06;5029073;28;20375;-38
2021/04/26 01:21:41;;;;;;;16.60;9.00;;;;;;;10.98;59.12;99823.50;5030297;28;20025;-38
2021/04/26 01:24:45;;;;;;;18.30;9.43;;;;;;;11.02;59.22;99824.72;5030058;28;20083;-38
2021/04/26 01:27:23;;;;;;;17.15;8.77;;;;;;;11.00;59.46;99827.59;5010780;28;20104;-38
2021/04/26 01:29:48;;;;;;;16.58;8.95;;;;;;;10.94;59.17;99829.22;5011247;28;20030;-38
2021/04/26 01:32:32;;;;;;;17.13;9.10;;;;;;;11.08;58.79;99827.41;5011882;28;20049;-38
2021/04/26 01:34:58;;;;;;;16.52;9.18;;;;;;;11.05;58.81;99830.47;5011528;28;20113;-37
2021/04/26 01:37:23;;;;;;;20.08;9.13;;;;;;;11.05;58.76;99822.47;5010318;28;20077;-37
2021/04/26 01:39:49;;;;;;;18.65;9.50;;;;;;;10.87;59.30;99814.28;4993678;28;20498;-37
2021/04/26 01:42:15;;;;;;;18.85;10.02;;;;;;;10.91;59.37;99816.34;4993959;28;20091;-38
2021/04/26 01:44:41;;;;;;;16.08;8.98;;;;;;;10.65;59.76;99800.34;4993785;28;20113;-38
2021/04/26 01:47:06;;;;;;;17.13;9.30;;;;;;;10.92;59.33;99820.63;5002569;28;20022;-38
2021/04/26 01:49:32;;;;;;;17.85;9.32;;;;;;;11.03;58.77;99805.09;5013228;28;20032;-38
2021/04/26 01:51:57;;;;;;;17.52;8.93;;;;;;;11.14;58.76;99812.47;5029487;28;20122;-37
2021/04/26 01:54:23;;;;;;;19.23;9.52;;;;;;;11.10;58.44;99812.03;5029518;28;20029;-37
2021/04/26 01:56:49;;;;;;;21.23;10.02;;;;;;;11.09;57.91;99806.91;5012903;28;20040;-37
2021/04/26 01:59:14;;;;;;;20.83;9.77;;;;;;;10.91;58.69;99791.56;5029394;28;20465;-37
2021/04/26 02:01:40;;;;;;;16.10;9.27;;;;;;;10.93;58.52;99803.63;5029686;28;20033;-38
2021/04/26 02:04:06;;;;;;;17.85;9.43;;;;;;;10.88;58.77;99805.28;5013026;28;20453;-38
2021/04/26 02:06:32;;;;;;;16.10;9.05;;;;;;;10.94;58.30;99805.25;5029605;28;20078;-39
2021/04/26 02:08:57;;;;;;;16.58;9.00;;;;;;;10.87;58.55;99808.94;5030740;28;20072;-39
2021/04/26 02:11:23;;;;;;;17.50;9.88;;;;;;;10.90;58.33;99828.00;5012630;28;20128;-38
2021/04/26 02:13:48;;;;;;;16.52;9.73;;;;;;;10.97;58.04;99828.03;5012979;28;20025;-38
2021/04/26 02:16:13;;;;;;;17.27;9.30;;;;;;;10.80;58.82;99827.59;5029120;28;20458;-38
2021/04/26 02:18:39;;;;;;;17.13;9.40;;;;;;;10.96;57.97;99829.03;5030495;28;20099;-39
2021/04/26 02:21:05;;;;;;;17.27;9.65;;;;;;;10.98;58.21;99826.97;5029116;28;20029;-38
2021/04/26 02:23:30;;;;;;;20.92;9.65;;;;;;;10.93;58.48;99824.94;5030250;28;20370;-38
2021/04/26 02:25:57;;;;;;;14.60;10.02;;;;;;;10.93;57.79;99830.25;5030232;28;20025;-37
2021/04/26 02:28:22;;;;;;;16.88;9.63;;;;;;;10.95;58.14;99835.41;5030719;28;20109;-37
2021/04/26 02:30:50;;;;;;;15.93;9.20;;;;;;;10.58;58.53;99834.91;5029791;28;20484;-38
2021/04/26 02:33:17;;;;;;;15.65;9.38;;;;;;;10.62;58.47;99830.81;5029022;28;20029;-37
2021/04/26 02:35:49;;;;;;;17.92;9.90;;;;;;;10.80;58.21;99832.09;5028989;28;20422;-37
2021/04/26 02:38:17;;;;;;;20.30;9.93;;;;;;;10.59;58.32;99822.44;5030366;28;20037;-38
2021/04/26 02:41:16;;;;;;;17.85;10.10;;;;;;;10.86;57.87;99820.63;5029130;28;20374;-37
2021/04/26 02:43:43;;;;;;;16.60;9.52;;;;;;;10.76;58.08;99818.38;5025768;28;20107;-37
2021/04/26 02:46:08;;;;;;;20.33;10.20;;;;;;;10.81;57.93;99821.22;5029011;28;20033;-37
2021/04/26 02:48:36;;;;;;;20.60;10.50;;;;;;;10.42;58.89;99824.66;5030544;28;20049;-37
2021/04/26 02:51:02;;;;;;;16.27;9.90;;;;;;;10.63;58.49;99813.03;5030205;28;20429;-37
2021/04/26 02:53:31;;;;;;;20.98;10.63;;;;;;;10.60;58.11;99818.75;5029242;28;20104;-38
2021/04/26 02:56:04;;;;;;;16.23;10.00;;;;;;;10.60;57.71;99832.88;5029156;28;20108;-38
2021/04/26 02:58:30;;;;;;;18.83;10.38;;;;;;;10.64;57.69;99834.13;5017506;28;20463;-38
2021/04/26 03:00:56;;;;;;;19.27;10.52;;;;;;;10.75;57.11;99827.38;5030194;28;20032;-37
2021/04/26 03:03:21;;;;;;;18.92;10.50;;;;;;;10.68;58.65;99831.84;5028963;28;20385;-37
2021/04/26 03:05:49;;;;;;;20.40;13.05;;;;;;;10.57;57.64;99830.63;5028570;28;20924;-37
2021/04/26 03:08:14;;;;;;;28.48;16.90;;;;;;;10.48;57.42;99823.84;5012546;28;20037;-38
2021/04/26 03:10:40;;;;;;;35.70;21.15;;;;;;;10.29;57.94;99822.72;5029572;28;20115;-38
2021/04/26 03:13:05;;;;;;;111.07;52.85;;;;;;;10.36;57.53;99827.06;5012061;28;20172;-38
2021/04/26 03:15:31;;;;;;;23.08;13.27;;;;;;;10.02;59.25;99824.47;5012212;28;20033;-38
2021/04/26 03:17:56;;;;;;;22.10;11.63;;;;;;;8.80;61.96;99837.91;5012071;28;20034;-39
2021/04/26 03:20:22;;;;;;;19.95;11.68;;;;;;;8.21;63.33;99833.56;5028466;28;20425;-37
2021/04/26 03:22:48;;;;;;;20.90;11.98;;;;;;;7.83;65.92;99838.19;5028964;28;20037;-37
2021/04/26 03:25:13;;;;;;;21.00;12.32;;;;;;;8.24;65.63;99832.38;5028515;28;20033;-37
2021/04/26 03:27:42;;;;;;;21.63;12.35;;;;;;;7.59;65.47;99839.25;5028215;28;20486;-37
2021/04/26 03:30:08;;;;;;;22.10;11.95;;;;;;;8.17;65.82;99842.91;5028338;28;20037;-39
2021/04/26 03:32:33;;;;;;;43.65;25.20;;;;;;;7.90;66.76;99847.06;5027934;28;20051;-38
2021/04/26 03:34:59;;;;;;;107.00;47.08;;;;;;;7.41;66.21;99845.72;5029490;28;20030;-38
2021/04/26 03:37:25;;;;;;;37.70;20.40;;;;;;;7.21;69.55;99847.22;5028123;28;20386;-37
2021/04/26 03:39:50;;;;;;;27.83;15.30;;;;;;;7.18;69.38;99855.56;5028052;28;20103;-37
2021/04/26 03:42:19;;;;;;;24.95;15.02;;;;;;;7.12;69.96;99853.59;5031611;28;20113;-37
2021/04/26 03:44:45;;;;;;;23.80;14.40;;;;;;;7.15;69.86;99851.41;5032951;28;20088;-38
2021/04/26 03:47:11;;;;;;;25.38;14.13;;;;;;;7.17;69.98;99857.34;5032757;28;20021;-39
2021/04/26 03:49:36;;;;;;;23.38;14.10;;;;;;;7.20;69.15;99846.41;5032745;28;20033;-39
2021/04/26 03:52:03;;;;;;;26.27;14.35;;;;;;;7.13;69.18;99844.66;5031574;28;20319;-39
2021/04/26 03:54:29;;;;;;;25.15;15.40;;;;;;;7.05;70.39;99850.84;5032761;28;20060;-38
2021/04/26 03:56:55;;;;;;;26.20;15.45;;;;;;;7.08;70.63;99861.06;5031708;28;20151;-38
2021/04/26 03:59:20;;;;;;;25.60;15.32;;;;;;;7.35;69.63;99862.34;5032639;28;20391;-37
2021/04/26 04:01:46;;;;;;;27.63;14.88;;;;;;;7.50;69.08;99858.88;5032303;28;20060;-38
2021/04/26 04:04:11;;;;;;;26.55;15.40;;;;;;;7.75;68.49;99862.09;5031015;28;20378;-39
2021/04/26 04:06:37;;;;;;;24.38;14.48;;;;;;;7.93;68.28;99856.47;5032243;28;20362;-38
2021/04/26 04:09:06;;;;;;;24.60;14.98;;;;;;;8.04;67.15;99856.00;5032066;28;20028;-38
2021/04/26 04:11:31;;;;;;;32.42;13.98;;;;;;;8.32;67.49;99872.06;5032000;28;20045;-38
2021/04/26 04:13:57;;;;;;;25.55;14.93;;;;;;;8.51;66.43;99881.28;5031528;28;20095;-38
2021/04/26 04:16:22;;;;;;;33.95;14.35;;;;;;;8.61;65.74;99876.50;5032575;28;20029;-40
2021/04/26 04:18:48;;;;;;;42.63;15.27;;;;;;;9.20;65.00;99885.25;5032060;28;20433;-38
2021/04/26 04:21:14;;;;;;;23.05;13.65;;;;;;;10.43;61.41;99888.28;5032126;28;20025;-38
2021/04/26 04:23:39;;;;;;;24.05;12.57;;;;;;;10.32;59.84;99892.34;5031706;28;20335;-38
2021/04/26 04:26:05;;;;;;;17.50;11.82;;;;;;;10.39;60.01;99887.03;5021804;28;20493;-39
2021/04/26 04:28:31;;;;;;;22.42;11.60;;;;;;;11.01;57.82;99885.16;5011739;28;20138;-38
2021/04/26 04:30:57;;;;;;;21.23;12.15;;;;;;;10.87;58.71;99880.84;5011790;28;20034;-38
2021/04/26 04:33:23;;;;;;;21.48;11.63;;;;;;;11.00;57.70;99877.38;5014491;28;20036;-38
2021/04/26 04:35:48;;;;;;;19.10;10.55;;;;;;;11.11;57.71;99874.13;5020326;28;20116;-38
2021/04/26 04:38:14;;;;;;;19.00;9.82;;;;;;;11.18;57.89;99885.59;5018783;28;20030;-38
2021/04/26 04:40:39;;;;;;;20.75;10.55;;;;;;;11.30;56.98;99878.63;5011558;28;20026;-38
2021/04/26 04:43:05;;;;;;;19.27;11.55;;;;;;;11.41;56.18;99877.19;5011198;28;20037;-39
2021/04/26 04:45:30;;;;;;;17.02;10.70;;;;;;;11.60;55.24;99880.88;5028577;28;20029;-38
2021/04/26 04:47:55;;;;;;;15.70;10.60;;;;;;;11.79;55.39;99886.41;5031351;28;20028;-38
2021/04/26 04:50:21;;;;;;;17.80;10.63;;;;;;;11.99;54.94;99894.38;5030955;28;20444;-39
2021/04/26 04:52:46;;;;;;;19.92;10.07;;;;;;;12.95;56.02;99895.41;5030499;28;20025;-38
2021/04/26 04:55:12;;;;;;;18.10;9.77;;;;;;;14.37;52.35;99892.88;5030934;28;20029;-38
2021/04/26 04:57:37;;;;;;;22.05;12.00;;;;;;;15.36;48.17;99886.38;5022263;28;20040;-38
2021/04/26 05:00:04;;;;;;;26.38;14.85;;;;;;;16.23;45.75;99880.28;5031681;28;20052;-38
2021/04/26 05:02:29;;;;;;;34.10;18.50;;;;;;;16.92;43.53;99882.16;5029735;28;20120;-38
2021/04/26 05:04:55;;;;;;;20.25;11.40;;;;;;;17.28;42.14;99882.78;5031580;28;20021;-38
2021/04/26 05:07:20;;;;;;;26.17;15.70;;;;;;;16.99;42.72;99889.03;5031245;28;20025;-38
2021/04/26 05:09:46;;;;;;;21.63;13.40;;;;;;;16.66;42.47;99884.38;5031512;28;20029;-39
2021/04/26 05:12:13;;;;;;;22.52;11.10;;;;;;;17.12;42.62;99887.09;5030818;28;20161;-38
2021/04/26 05:14:40;;;;;;;20.67;9.57;;;;;;;17.74;42.63;99880.78;5031283;28;20033;-37
2021/04/26 05:17:05;;;;;;;17.77;10.10;;;;;;;18.52;40.62;99880.72;5030813;28;20113;-38
2021/04/26 05:19:32;;;;;;;17.63;10.27;;;;;;;18.30;39.85;99881.56;5030960;28;20025;-38
2021/04/26 05:21:57;;;;;;;24.75;16.27;;;;;;;18.31;39.46;99885.88;5031086;28;20124;-38
2021/04/26 05:24:22;;;;;;;31.77;18.63;;;;;;;18.03;40.29;99889.56;5030461;28;20029;-38
2021/04/26 05:26:48;;;;;;;20.52;11.60;;;;;;;18.55;39.64;99894.50;5030544;28;20056;-39
2021/04/26 05:29:13;;;;;;;15.60;9.45;;;;;;;18.92;38.02;99898.41;5030600;28;20032;-39
2021/04/26 05:31:39;;;;;;;17.00;8.98;;;;;;;19.14;37.18;99896.47;5031191;28;20040;-39
2021/04/26 05:34:04;;;;;;;15.55;8.70;;;;;;;19.02;37.45;99895.00;5030396;28;20445;-39
2021/04/26 05:36:30;;;;;;;13.48;8.40;;;;;;;19.53;36.54;99903.53;5030449;28;20033;-39
2021/04/26 05:38:55;;;;;;;13.73;8.20;;;;;;;19.79;36.76;99899.16;5030619;28;20048;-38
2021/04/26 05:41:21;;;;;;;16.13;8.98;;;;;;;20.25;35.49;99896.69;5030645;28;20028;-38
2021/04/26 05:43:46;;;;;;;14.38;8.30;;;;;;;20.63;34.62;99902.78;5030200;28;20035;-39
2021/04/26 05:46:13;;;;;;;17.30;8.68;;;;;;;20.94;34.91;99907.47;5030146;28;20025;-39
2021/04/26 05:48:39;;;;;;;13.20;8.18;;;;;;;21.24;34.22;99903.97;5030203;28;20017;-39
2021/04/26 05:51:04;;;;;;;14.02;8.85;;;;;;;21.30;33.89;99848.75;5030126;28;20103;-38
2021/04/26 05:53:30;;;;;;;17.90;11.02;;;;;;;21.75;33.46;99886.91;5029988;28;20025;-37
2021/04/26 05:55:55;;;;;;;13.95;10.02;;;;;;;21.71;33.83;99881.22;5030236;28;20418;-39
2021/04/26 05:58:21;;;;;;;17.42;9.63;;;;;;;22.19;32.59;99884.34;5029833;28;20452;-39
2021/04/26 06:00:47;;;;;;;20.80;13.02;;;;;;;22.06;32.13;99885.72;5029894;28;20029;-38
2021/04/26 06:03:12;;;;;;;18.60;9.15;;;;;;;21.81;33.24;99892.03;5030144;28;20112;-38
2021/04/26 06:05:38;;;;;;;16.52;8.82;;;;;;;21.63;33.83;99898.84;5029451;28;20595;-39
2021/04/26 06:08:03;;;;;;;13.98;8.27;;;;;;;21.66;33.54;99884.75;5030042;28;20033;-38
2021/04/26 06:10:29;;;;;;;14.85;7.85;;;;;;;22.33;32.60;99900.88;5029681;28;20055;-39
2021/04/26 06:12:54;;;;;;;14.43;7.80;;;;;;;22.56;31.93;99895.84;5030065;28;20457;-39
2021/04/26 06:15:22;;;;;;;13.57;9.98;;;;;;;22.67;31.85;99902.03;5029935;28;20037;-39
2021/04/26 06:17:47;;;;;;;19.67;8.90;;;;;;;22.89;31.56;99901.66;5029996;28;20044;-37
2021/04/26 06:20:14;;;;;;;13.75;7.97;;;;;;;23.00;31.35;99895.06;5029716;28;20409;-38
2021/04/26 06:22:39;;;;;;;13.38;7.28;;;;;;;23.64;31.02;99892.38;5029699;28;20053;-38
2021/04/26 06:25:05;;;;;;;14.02;7.50;;;;;;;24.09;30.55;99899.25;5029762;28;20026;-38
2021/04/26 06:27:31;;;;;;;15.82;10.90;;;;;;;23.86;31.15;99897.34;5029614;28;20468;-38
2021/04/26 06:29:57;;;;;;;17.13;11.20;;;;;;;23.47;31.18;99896.31;5029806;28;20037;-39
2021/04/26 06:32:24;;;;;;;13.13;7.50;;;;;;;24.17;30.22;99892.38;5029507;28;20026;-39
2021/04/26 06:34:50;;;;;;;10.48;7.70;;;;;;;24.60;29.58;99903.28;5029482;28;20024;-39
2021/04/26 06:37:15;;;;;;;14.90;7.40;;;;;;;24.55;29.76;99892.47;5029271;28;20064;-38
2021/04/26 06:39:41;;;;;;;14.20;7.90;;;;;;;25.20;28.67;99888.22;5029650;28;20036;-38
2021/04/26 06:42:06;;;;;;;11.90;7.20;;;;;;;24.53;29.66;99891.94;5029641;28;20297;-39
2021/04/26 06:44:32;;;;;;;12.30;8.38;;;;;;;23.61;30.96;99888.34;5029815;28;20508;-38
2021/04/26 06:46:57;;;;;;;15.18;8.63;;;;;;;24.07;30.25;99885.16;5029251;28;20030;-37
2021/04/26 06:49:24;;;;;;;11.25;7.70;;;;;;;24.81;29.62;99886.63;5029222;28;20401;-39
2021/04/26 06:51:50;;;;;;;13.02;7.63;;;;;;;25.40;28.59;99882.47;5029307;28;20022;-39
2021/04/26 06:54:15;;;;;;;11.10;7.40;;;;;;;25.87;28.08;99877.78;5029623;28;20036;-39
2021/04/26 06:56:41;;;;;;;12.32;7.35;;;;;;;25.43;28.59;99879.13;5029060;28;20033;-39
2021/04/26 06:59:07;;;;;;;15.75;9.82;;;;;;;24.75;29.87;99873.13;5028934;28;20060;-39
2021/04/26 07:01:32;;;;;;;12.60;8.68;;;;;;;25.48;28.77;99883.69;5029179;28;20401;-39
2021/04/26 07:03:57;;;;;;;9.50;7.28;;;;;;;25.95;28.18;99879.06;5028989;28;20025;-39
2021/04/26 07:06:23;;;;;;;18.33;8.38;;;;;;;26.49;27.36;99879.28;5029459;28;20040;-38
2021/04/26 07:08:48;;;;;;;17.35;7.78;;;;;;;25.85;28.13;99858.19;5029371;28;20032;-37
2021/04/26 07:11:14;;;;;;;10.60;7.72;;;;;;;25.26;29.14;99866.06;5029316;28;20053;-40
2021/04/26 07:13:39;;;;;;;12.73;8.02;;;;;;;25.12;28.85;99857.03;5029574;28;20112;-38
2021/04/26 07:16:05;;;;;;;11.60;8.05;;;;;;;25.01;28.53;99858.31;5031028;28;20030;-39
2021/04/26 07:18:30;;;;;;;14.73;8.25;;;;;;;26.00;27.89;99865.28;5033042;28;20033;-39
2021/04/26 07:20:56;;;;;;;10.57;7.22;;;;;;;25.78;27.81;99854.25;5032514;28;20022;-39
2021/04/26 07:23:21;;;;;;;14.65;6.53;;;;;;;26.41;27.18;99852.75;5031964;28;20413;-39
2021/04/26 07:25:47;;;;;;;10.70;7.50;;;;;;;26.18;26.86;99821.84;5031545;28;20029;-39
2021/04/26 07:28:12;;;;;;;10.23;7.13;;;;;;;25.01;29.06;99842.78;5031757;28;20025;-39
2021/04/26 07:30:38;;;;;;;8.52;6.88;;;;;;;25.44;28.09;99852.72;5032303;28;20107;-39
2021/04/26 07:33:04;;;;;;;12.95;6.82;;;;;;;25.38;28.57;99852.00;5032693;28;20026;-40
2021/04/26 07:35:29;;;;;;;10.60;6.88;;;;;;;26.25;27.73;99846.78;5032206;28;20021;-39
2021/04/26 07:37:55;;;;;;;10.85;7.00;;;;;;;26.24;27.39;99848.72;5031379;28;20040;-38
2021/04/26 07:40:20;;;;;;;14.70;7.50;;;;;;;26.72;26.00;99840.03;5032017;28;20055;-39
2021/04/26 07:42:46;;;;;;;13.68;7.18;;;;;;;26.62;26.78;99848.47;5032402;28;20029;-39
2021/04/26 07:45:11;;;;;;;11.18;7.03;;;;;;;26.54;26.10;99860.09;5031089;28;20025;-38
2021/04/26 07:47:37;;;;;;;11.63;7.07;;;;;;;27.36;25.45;99852.72;5031945;28;20053;-39
2021/04/26 07:50:03;;;;;;;11.07;6.97;;;;;;;27.64;25.18;99845.09;5032851;28;20017;-39
2021/04/26 07:52:28;;;;;;;13.07;7.50;;;;;;;27.05;25.12;99849.91;5032514;28;20498;-39
2021/04/26 07:54:54;;;;;;;12.45;8.00;;;;;;;25.79;26.61;99836.81;5032445;28;20075;-39
2021/04/26 07:57:19;;;;;;;14.40;8.95;;;;;;;26.03;27.04;99844.81;5032432;28;20397;-39
2021/04/26 07:59:45;;;;;;;14.48;8.38;;;;;;;26.65;26.64;99831.44;5032381;28;20025;-40
2021/04/26 08:02:10;;;;;;;14.02;8.20;;;;;;;26.26;26.59;99834.78;5032205;28;20402;-38
2021/04/26 08:04:35;;;;;;;14.13;7.57;;;;;;;26.27;26.37;99837.22;5032178;28;20112;-39
2021/04/26 08:07:01;;;;;;;19.98;8.30;;;;;;;26.72;25.88;99834.56;5032381;28;20393;-40
2021/04/26 08:09:26;;;;;;;15.90;9.30;;;;;;;27.13;25.90;99834.69;5032507;28;20025;-38
2021/04/26 08:11:52;;;;;;;19.00;8.50;;;;;;;26.55;26.78;99833.59;5031758;28;20045;-38
2021/04/26 08:14:17;;;;;;;15.77;9.10;;;;;;;26.93;26.40;99834.09;5031985;28;20040;-39
2021/04/26 08:16:43;;;;;;;10.18;8.63;;;;;;;27.78;25.54;99834.09;5032297;28;20045;-39
2021/04/26 08:19:10;;;;;;;18.92;8.35;;;;;;;27.61;26.05;99837.56;5031873;28;20053;-39
2021/04/26 08:21:36;;;;;;;13.60;7.68;;;;;;;27.95;25.25;99843.47;5030487;28;20406;-38
2021/04/26 08:24:01;;;;;;;13.00;7.47;;;;;;;27.67;26.01;99849.94;5031896;28;20022;-39
2021/04/26 08:26:27;;;;;;;14.25;8.18;;;;;;;28.01;25.28;99848.50;5031946;28;20022;-40
2021/04/26 08:28:52;;;;;;;16.17;8.77;;;;;;;27.62;25.78;99846.53;5031312;28;20102;-39
2021/04/26 08:31:18;;;;;;;13.45;7.95;;;;;;;27.18;27.24;99840.03;5031779;28;20045;-39
2021/04/26 08:33:44;;;;;;;14.20;9.20;;;;;;;25.91;29.12;99837.09;5031680;28;20052;-37
2021/04/26 08:36:10;;;;;;;16.80;10.35;;;;;;;26.25;28.28;99825.78;5031641;28;20025;-39
2021/04/26 08:38:35;;;;;;;16.48;8.32;;;;;;;26.76;27.30;99823.84;5031361;28;20108;-40
2021/04/26 08:41:01;;;;;;;12.50;8.07;;;;;;;25.94;28.32;99829.16;5031021;28;20061;-39
2021/04/26 08:43:28;;;;;;;13.23;8.48;;;;;;;25.50;28.74;99827.00;5031304;28;20100;-39
2021/04/26 08:45:55;;;;;;;14.45;8.23;;;;;;;26.08;28.49;99829.16;5029872;28;20101;-39
2021/04/26 08:48:21;;;;;;;13.02;8.15;;;;;;;26.62;28.11;99807.53;5031225;28;20020;-39
2021/04/26 08:50:46;;;;;;;17.42;8.93;;;;;;;26.63;27.81;99811.84;5013468;28;20501;-39
2021/04/26 08:53:12;;;;;;;16.77;9.55;;;;;;;27.65;26.65;99815.88;5031071;28;20060;-40
2021/04/26 08:55:39;;;;;;;14.48;8.20;;;;;;;27.66;26.08;99806.53;5030769;28;20400;-39
2021/04/26 08:58:04;;;;;;;14.93;8.60;;;;;;;28.01;25.79;99804.75;5029945;28;20025;-40
2021/04/26 09:00:30;;;;;;;12.27;7.63;;;;;;;28.33;25.25;99790.94;5030781;28;20346;-38
2021/04/26 09:02:59;;;;;;;15.18;8.25;;;;;;;26.58;27.12;99794.75;5030633;28;20030;-40
2021/04/26 09:05:30;;;;;;;15.90;7.65;;;;;;;27.04;26.26;99785.50;5030515;28;20473;-39
2021/04/26 09:07:57;;;;;;;13.98;8.02;;;;;;;26.90;26.38;99783.66;5030801;28;20497;-40
2021/04/26 09:10:43;;;;;;;16.63;7.78;;;;;;;25.80;27.93;99782.00;5030856;28;20045;-39
2021/04/26 09:13:31;;;;;;;16.35;7.50;;;;;;;26.75;27.38;99783.22;5030701;28;20029;-39
2021/04/26 09:16:18;;;;;;;11.73;7.28;;;;;;;27.55;25.99;99778.69;5030636;28;20026;-39
2021/04/26 09:19:01;;;;;;;11.68;7.85;;;;;;;27.82;25.67;99783.09;5030670;28;20036;-39
2021/04/26 09:21:28;;;;;;;12.15;7.22;;;;;;;27.99;24.54;99781.56;5030698;28;20405;-39
2021/04/26 09:24:19;;;;;;;12.55;7.50;;;;;;;27.91;24.92;99783.13;5030957;28;20028;-39
2021/04/26 09:26:48;;;;;;;12.40;7.40;;;;;;;27.02;26.30;99782.28;5030649;28;20032;-38
2021/04/26 09:29:22;;;;;;;14.02;8.07;;;;;;;26.23;26.94;99775.38;5030273;28;20021;-40
2021/04/26 09:32:11;;;;;;;13.98;7.63;;;;;;;25.85;27.50;99778.34;5030539;28;20025;-39
2021/04/26 09:34:43;;;;;;;16.90;7.60;;;;;;;24.99;28.90;99768.78;5024007;28;20045;-38
2021/04/26 09:37:28;;;;;;;13.60;7.65;;;;;;;25.72;28.78;99777.25;5030453;28;20029;-39
2021/04/26 09:39:57;;;;;;;10.85;7.90;;;;;;;26.74;26.87;99757.84;5029001;28;20022;-38
2021/04/26 09:42:35;;;;;;;12.80;7.43;;;;;;;26.36;27.18;99760.91;5029801;28;20025;-38
2021/04/26 09:45:35;;;;;;;10.85;7.65;;;;;;;27.02;26.98;99760.44;5029342;28;20060;-37
2021/04/26 09:48:19;;;;;;;12.20;6.82;;;;;;;28.27;25.18;99757.44;5022638;28;20040;-38
2021/04/26 09:51:17;;;;;;;16.40;7.32;;;;;;;28.94;23.82;99766.25;5028700;28;20044;-38
2021/04/26 09:53:42;;;;;;;12.00;6.78;;;;;;;27.30;25.70;99764.63;5029000;28;20052;-38
2021/04/26 09:56:23;;;;;;;15.43;7.88;;;;;;;27.04;25.52;99755.47;5030166;28;20474;-38
2021/04/26 09:58:54;;;;;;;11.43;7.07;;;;;;;26.91;25.41;99749.75;5029953;28;20029;-38
2021/04/26 10:01:20;;;;;;;13.25;6.93;;;;;;;27.59;25.53;99751.53;5030056;28;20036;-39
2021/04/26 10:03:46;;;;;;;12.07;7.60;;;;;;;28.68;24.38;99750.69;5028313;28;20021;-38
2021/04/26 10:06:15;;;;;;;12.02;7.03;;;;;;;29.57;24.08;99759.13;5029996;28;20032;-39
2021/04/26 10:08:45;;;;;;;11.45;7.05;;;;;;;30.10;22.06;99750.59;5029942;28;20025;-39
2021/04/26 10:11:11;;;;;;;11.13;6.88;;;;;;;29.58;22.74;99749.75;5030059;28;20073;-39
2021/04/26 10:13:36;;;;;;;11.02;7.00;;;;;;;29.01;23.30;99748.19;5029832;28;20025;-39
2021/04/26 10:16:03;;;;;;;14.43;7.25;;;;;;;28.14;24.02;99742.00;5030058;28;20025;-39
2021/04/26 10:18:32;;;;;;;15.43;6.70;;;;;;;27.53;24.65;99737.22;5012180;28;20021;-37
2021/04/26 10:20:57;;;;;;;12.98;6.70;;;;;;;26.80;25.24;99723.84;5012641;28;20032;-39
2021/04/26 10:23:35;;;;;;;14.68;7.10;;;;;;;27.26;25.18;99730.03;5028832;28;20029;-39
2021/04/26 10:26:00;;;;;;;13.18;6.60;;;;;;;27.37;24.95;99725.91;5030056;28;20496;-39
2021/04/26 10:28:36;;;;;;;10.27;6.40;;;;;;;27.90;23.91;99721.41;5012046;28;20022;-38
2021/04/26 10:31:08;;;;;;;12.57;6.55;;;;;;;27.92;23.84;99710.94;5029624;28;20083;-39
2021/04/26 10:34:12;;;;;;;15.65;6.53;;;;;;;27.86;23.91;99717.66;5029476;28;20029;-39
2021/04/26 10:36:45;;;;;;;10.95;5.88;;;;;;;26.33;25.75;99718.69;5029500;28;20037;-39
2021/04/26 10:39:15;;;;;;;11.02;5.78;;;;;;;27.27;23.94;99710.59;5029561;28;20021;-39
2021/04/26 10:41:57;;;;;;;8.10;5.47;;;;;;;28.12;23.45;99714.16;5028576;28;20029;-38
2021/04/26 10:44:41;;;;;;;14.52;6.40;;;;;;;27.89;23.35;99700.63;5030107;28;20033;-39
2021/04/26 10:47:29;;;;;;;11.23;5.90;;;;;;;28.69;23.62;99707.69;5029660;28;20341;-39
2021/04/26 10:50:19;;;;;;;10.07;4.75;;;;;;;28.92;21.03;99697.31;5029633;28;20348;-39
2021/04/26 10:52:48;;;;;;;8.13;4.50;;;;;;;29.18;20.65;99705.47;5028159;28;20491;-40
2021/04/26 10:55:19;;;;;;;7.35;4.50;;;;;;;29.04;21.21;99662.66;5034178;28;20030;-40
2021/04/26 10:57:56;;;;;;;9.35;5.07;;;;;;;29.14;21.92;99705.31;5033957;28;20464;-39
2021/04/26 11:00:21;;;;;;;9.05;4.90;;;;;;;30.07;20.14;99697.22;5034041;28;20033;-39
2021/04/26 11:02:56;;;;;;;13.00;6.38;;;;;;;30.70;19.87;99691.63;5033696;28;20080;-38
2021/04/26 11:05:26;;;;;;;23.40;11.98;;;;;;;31.39;19.94;99694.69;5034044;28;20023;-39
2021/04/26 11:08:04;;;;;;;10.40;6.05;;;;;;;32.13;18.59;99698.13;5033717;28;20039;-40
2021/04/26 11:10:30;;;;;;;8.52;4.70;;;;;;;32.10;17.45;99689.78;5032977;28;20052;-39
2021/04/26 11:12:56;;;;;;;8.20;4.90;;;;;;;31.63;17.21;99677.38;5033369;28;20026;-39
2021/04/26 11:15:25;;;;;;;8.25;4.80;;;;;;;30.40;18.87;99683.53;5033292;28;20025;-39
2021/04/26 11:17:50;;;;;;;;;;;;;;;29.65;19.14;99674.44;5012737;28;20444;-39
2021/04/26 11:20:23;;;;;;;8.95;4.10;;;;;;;29.34;18.78;99673.66;5013801;28;19910;-41
2021/04/26 11:22:53;;;;;;;7.05;4.18;;;;;;;29.43;18.18;99668.94;5013865;28;20486;-40
2021/04/26 11:25:30;;;;;;;6.30;3.78;;;;;;;29.56;18.53;99656.09;5013500;28;20096;-39
2021/04/26 11:27:56;;;;;;;14.93;4.15;;;;;;;28.33;19.52;99648.66;5013165;28;20022;-39